This is the latest recevied weather packets stored in our database for station/object OK4PZ-5. If no packets are shown the sender has not sent any weather packets the latest 1 day(s).
| Time | Temp. | Humidity | Pressure | Rain* | Wind** | Luminosity | Snow |
|---|---|---|---|---|---|---|---|
| 1778010302 | 17.22° C | 65% | 1006 hPa | 0 mm | 0.45 m/s, 4° | - | - |
| 1778009402 | 17.78° C | 63% | 1006 hPa | 0 mm | 0 m/s | - | - |
| 1778008502 | 17.78° C | 62% | 1006 hPa | 0 mm | 0.45 m/s, 38° | - | - |
| 1778007602 | 17.78° C | 61% | 1006 hPa | 0 mm | 0.89 m/s, 33° | - | - |
| 1778006702 | 18.33° C | 60% | 1006 hPa | 0 mm | 0.89 m/s, 29° | - | - |
| 1778005803 | 18.89° C | 58% | 1006 hPa | 0 mm | 0.89 m/s, 96° | - | - |
| 1778004902 | 18.89° C | 58% | 1006 hPa | 0 mm | 0.89 m/s, 65° | - | - |
| 1778004003 | 19.44° C | 57% | 1006 hPa | 0 mm | 0.89 m/s, 41° | - | - |
| 1778003102 | 20° C | 56% | 1006 hPa | 0 mm | 1.34 m/s, 29° | - | - |
| 1778002202 | 20° C | 54% | 1006 hPa | 0 mm | 0.89 m/s, 39° | - | - |
| 1778001302 | 20.56° C | 51% | 1006 hPa | 0 mm | 2.24 m/s, 52° | - | - |
| 1778000402 | 20.56° C | 53% | 1007 hPa | 0 mm | 1.79 m/s, 31° | - | - |
| 1777999502 | 20.56° C | 53% | 1007 hPa | 0 mm | 1.34 m/s, 32° | - | - |
| 1777998603 | 20.56° C | 54% | 1007 hPa | 0 mm | 0.89 m/s, 0° | - | - |
| 1777997702 | 20.56° C | 56% | 1007 hPa | 0 mm | 0 m/s | - | - |
| 1777996803 | 20.56° C | 55% | 1007 hPa | 0 mm | 0 m/s | - | - |
| 1777995902 | 21.11° C | 53% | 1007 hPa | 0 mm | 0.45 m/s, 350° | - | - |
| 1777995002 | 22.78° C | 47% | 1008 hPa | 0 mm | 1.79 m/s, 293° | - | - |
| 1777994102 | 23.33° C | 43% | 1008 hPa | 0 mm | 0.45 m/s, 251° | - | - |
| 1777993202 | 22.78° C | 41% | 1008 hPa | 0 mm | 1.34 m/s, 135° | - | - |
| 1777992302 | 22.78° C | 41% | 1008 hPa | 0 mm | 0.45 m/s, 136° | - | - |
| 1777991402 | 22.78° C | 41% | 1008 hPa | 0 mm | 1.79 m/s, 123° | - | - |
| 1777990503 | 22.78° C | 41% | 1008 hPa | 0 mm | 2.68 m/s, 102° | - | - |
| 1777989603 | 22.78° C | 41% | 1008 hPa | 0 mm | 0.45 m/s, 170° | - | - |
| 1777988702 | 23.33° C | 40% | 1008 hPa | 0 mm | 2.68 m/s, 120° | - | - |
* Rain latest hour (hover to see other rain measurements)
** Current wind speed in m/s (hover to see current wind gust speed)